sensor_id;sensor_type;location;lat;lon;timestamp;P1;durP1;ratioP1;P2;durP2;ratioP2
52380;SDS011;38310;52.796;6.942;2023-03-23T00:02:22;12.95;;;9.65;;
52380;SDS011;38310;52.796;6.942;2023-03-23T00:05:03;12.70;;;10.27;;
52380;SDS011;38310;52.796;6.942;2023-03-23T00:07:32;12.15;;;10.02;;
52380;SDS011;38310;52.796;6.942;2023-03-23T00:09:58;13.18;;;9.77;;
52380;SDS011;38310;52.796;6.942;2023-03-23T00:12:27;11.98;;;9.52;;
52380;SDS011;38310;52.796;6.942;2023-03-23T00:15:04;11.80;;;10.57;;
52380;SDS011;38310;52.796;6.942;2023-03-23T00:17:32;13.88;;;9.82;;
52380;SDS011;38310;52.796;6.942;2023-03-23T00:19:58;14.15;;;9.63;;
52380;SDS011;38310;52.796;6.942;2023-03-23T00:22:26;12.20;;;9.57;;
52380;SDS011;38310;52.796;6.942;2023-03-23T00:24:53;12.13;;;9.15;;
52380;SDS011;38310;52.796;6.942;2023-03-23T00:27:19;15.07;;;9.68;;
52380;SDS011;38310;52.796;6.942;2023-03-23T00:29:46;13.43;;;9.13;;
52380;SDS011;38310;52.796;6.942;2023-03-23T00:32:13;12.07;;;9.07;;
52380;SDS011;38310;52.796;6.942;2023-03-23T00:34:39;13.30;;;9.25;;
52380;SDS011;38310;52.796;6.942;2023-03-23T00:37:09;11.38;;;9.32;;
52380;SDS011;38310;52.796;6.942;2023-03-23T00:39:35;13.82;;;9.18;;
52380;SDS011;38310;52.796;6.942;2023-03-23T00:42:03;9.50;;;8.30;;
52380;SDS011;38310;52.796;6.942;2023-03-23T00:44:29;12.48;;;9.20;;
52380;SDS011;38310;52.796;6.942;2023-03-23T00:46:57;12.52;;;8.60;;
52380;SDS011;38310;52.796;6.942;2023-03-23T00:49:24;10.82;;;8.27;;
52380;SDS011;38310;52.796;6.942;2023-03-23T00:51:54;11.40;;;8.02;;
52380;SDS011;38310;52.796;6.942;2023-03-23T00:54:21;10.65;;;7.80;;
52380;SDS011;38310;52.796;6.942;2023-03-23T00:56:48;12.02;;;8.45;;
52380;SDS011;38310;52.796;6.942;2023-03-23T00:59:14;15.57;;;8.27;;
52380;SDS011;38310;52.796;6.942;2023-03-23T01:01:40;8.63;;;7.38;;
52380;SDS011;38310;52.796;6.942;2023-03-23T01:04:06;11.02;;;7.15;;
52380;SDS011;38310;52.796;6.942;2023-03-23T01:06:34;12.40;;;7.32;;
52380;SDS011;38310;52.796;6.942;2023-03-23T01:09:04;12.15;;;6.38;;
52380;SDS011;38310;52.796;6.942;2023-03-23T01:11:31;11.48;;;6.38;;
52380;SDS011;38310;52.796;6.942;2023-03-23T01:13:57;9.63;;;6.80;;
52380;SDS011;38310;52.796;6.942;2023-03-23T01:16:23;9.00;;;6.13;;
52380;SDS011;38310;52.796;6.942;2023-03-23T01:18:49;8.93;;;6.30;;
52380;SDS011;38310;52.796;6.942;2023-03-23T01:21:15;10.95;;;6.32;;
52380;SDS011;38310;52.796;6.942;2023-03-23T01:23:43;10.80;;;5.78;;
52380;SDS011;38310;52.796;6.942;2023-03-23T01:26:11;8.25;;;5.88;;
52380;SDS011;38310;52.796;6.942;2023-03-23T01:28:39;9.27;;;6.13;;
52380;SDS011;38310;52.796;6.942;2023-03-23T01:31:15;8.95;;;6.50;;
52380;SDS011;38310;52.796;6.942;2023-03-23T01:33:43;8.35;;;6.28;;
52380;SDS011;38310;52.796;6.942;2023-03-23T01:36:11;10.35;;;6.82;;
52380;SDS011;38310;52.796;6.942;2023-03-23T01:38:43;12.98;;;6.93;;
52380;SDS011;38310;52.796;6.942;2023-03-23T01:41:10;10.20;;;6.25;;
52380;SDS011;38310;52.796;6.942;2023-03-23T01:43:36;10.45;;;5.50;;
52380;SDS011;38310;52.796;6.942;2023-03-23T01:46:18;9.77;;;6.07;;
52380;SDS011;38310;52.796;6.942;2023-03-23T01:48:43;7.10;;;5.72;;
52380;SDS011;38310;52.796;6.942;2023-03-23T01:51:13;9.63;;;6.32;;
52380;SDS011;38310;52.796;6.942;2023-03-23T01:53:46;10.40;;;5.80;;
52380;SDS011;38310;52.796;6.942;2023-03-23T01:56:16;9.73;;;5.32;;
52380;SDS011;38310;52.796;6.942;2023-03-23T01:58:45;9.73;;;5.28;;
52380;SDS011;38310;52.796;6.942;2023-03-23T02:01:12;8.18;;;5.35;;
52380;SDS011;38310;52.796;6.942;2023-03-23T02:03:43;9.25;;;5.72;;
52380;SDS011;38310;52.796;6.942;2023-03-23T02:06:11;9.45;;;5.40;;
52380;SDS011;38310;52.796;6.942;2023-03-23T02:08:37;6.50;;;4.95;;
52380;SDS011;38310;52.796;6.942;2023-03-23T02:11:19;8.30;;;5.18;;
52380;SDS011;38310;52.796;6.942;2023-03-23T02:13:46;7.55;;;4.78;;
52380;SDS011;38310;52.796;6.942;2023-03-23T02:16:21;8.23;;;5.30;;
52380;SDS011;38310;52.796;6.942;2023-03-23T02:19:18;7.22;;;4.68;;
52380;SDS011;38310;52.796;6.942;2023-03-23T02:22:36;8.40;;;5.20;;
52380;SDS011;38310;52.796;6.942;2023-03-23T02:25:24;8.80;;;5.15;;
52380;SDS011;38310;52.796;6.942;2023-03-23T02:31:05;10.07;;;5.00;;
52380;SDS011;38310;52.796;6.942;2023-03-23T02:33:40;9.95;;;5.50;;
52380;SDS011;38310;52.796;6.942;2023-03-23T02:36:13;9.85;;;5.00;;
52380;SDS011;38310;52.796;6.942;2023-03-23T02:41:31;7.65;;;4.95;;
52380;SDS011;38310;52.796;6.942;2023-03-23T02:44:01;8.18;;;5.15;;
52380;SDS011;38310;52.796;6.942;2023-03-23T02:46:28;8.48;;;4.90;;
52380;SDS011;38310;52.796;6.942;2023-03-23T02:48:55;9.68;;;5.70;;
52380;SDS011;38310;52.796;6.942;2023-03-23T02:51:24;8.73;;;4.88;;
52380;SDS011;38310;52.796;6.942;2023-03-23T02:53:51;8.82;;;4.85;;
52380;SDS011;38310;52.796;6.942;2023-03-23T02:56:20;9.32;;;5.45;;
52380;SDS011;38310;52.796;6.942;2023-03-23T02:58:48;9.45;;;5.30;;
52380;SDS011;38310;52.796;6.942;2023-03-23T03:04:05;8.70;;;5.55;;
52380;SDS011;38310;52.796;6.942;2023-03-23T03:12:20;9.18;;;5.35;;
52380;SDS011;38310;52.796;6.942;2023-03-23T03:17:58;8.60;;;4.80;;
52380;SDS011;38310;52.796;6.942;2023-03-23T03:20:30;7.63;;;4.80;;
52380;SDS011;38310;52.796;6.942;2023-03-23T03:22:57;8.48;;;5.20;;
52380;SDS011;38310;52.796;6.942;2023-03-23T03:25:24;7.05;;;4.75;;
52380;SDS011;38310;52.796;6.942;2023-03-23T03:27:53;8.05;;;4.53;;
52380;SDS011;38310;52.796;6.942;2023-03-23T03:30:23;7.93;;;5.05;;
52380;SDS011;38310;52.796;6.942;2023-03-23T03:32:55;9.07;;;4.80;;
52380;SDS011;38310;52.796;6.942;2023-03-23T03:35:25;7.00;;;4.63;;
52380;SDS011;38310;52.796;6.942;2023-03-23T03:37:51;5.82;;;4.30;;
52380;SDS011;38310;52.796;6.942;2023-03-23T03:40:19;6.30;;;4.70;;
52380;SDS011;38310;52.796;6.942;2023-03-23T03:42:46;7.82;;;4.80;;
52380;SDS011;38310;52.796;6.942;2023-03-23T03:45:13;8.35;;;5.18;;
52380;SDS011;38310;52.796;6.942;2023-03-23T03:47:41;6.57;;;4.53;;
52380;SDS011;38310;52.796;6.942;2023-03-23T03:50:06;6.78;;;4.70;;
52380;SDS011;38310;52.796;6.942;2023-03-23T03:52:33;6.72;;;4.80;;
52380;SDS011;38310;52.796;6.942;2023-03-23T03:55:00;6.72;;;4.30;;
52380;SDS011;38310;52.796;6.942;2023-03-23T03:57:25;9.18;;;5.10;;
52380;SDS011;38310;52.796;6.942;2023-03-23T03:59:51;6.00;;;4.57;;
52380;SDS011;38310;52.796;6.942;2023-03-23T04:02:17;7.85;;;5.18;;
52380;SDS011;38310;52.796;6.942;2023-03-23T04:04:48;7.30;;;4.90;;
52380;SDS011;38310;52.796;6.942;2023-03-23T04:07:15;6.97;;;4.50;;
52380;SDS011;38310;52.796;6.942;2023-03-23T04:09:44;6.93;;;4.57;;
52380;SDS011;38310;52.796;6.942;2023-03-23T04:12:14;6.97;;;4.88;;
52380;SDS011;38310;52.796;6.942;2023-03-23T04:14:40;6.22;;;4.95;;
52380;SDS011;38310;52.796;6.942;2023-03-23T04:17:06;7.07;;;4.60;;
52380;SDS011;38310;52.796;6.942;2023-03-23T04:19:34;7.60;;;5.15;;
52380;SDS011;38310;52.796;6.942;2023-03-23T04:22:02;8.98;;;5.32;;
52380;SDS011;38310;52.796;6.942;2023-03-23T04:24:29;8.52;;;5.38;;
52380;SDS011;38310;52.796;6.942;2023-03-23T04:26:58;7.65;;;5.03;;
52380;SDS011;38310;52.796;6.942;2023-03-23T04:29:24;8.02;;;5.55;;
52380;SDS011;38310;52.796;6.942;2023-03-23T04:31:50;6.68;;;5.38;;
52380;SDS011;38310;52.796;6.942;2023-03-23T04:34:17;8.45;;;5.22;;
52380;SDS011;38310;52.796;6.942;2023-03-23T04:36:44;9.00;;;5.40;;
52380;SDS011;38310;52.796;6.942;2023-03-23T04:39:11;8.18;;;5.80;;
52380;SDS011;38310;52.796;6.942;2023-03-23T04:41:38;7.45;;;5.43;;
52380;SDS011;38310;52.796;6.942;2023-03-23T04:44:06;9.60;;;5.80;;
52380;SDS011;38310;52.796;6.942;2023-03-23T04:46:32;7.80;;;5.45;;
52380;SDS011;38310;52.796;6.942;2023-03-23T04:48:58;9.45;;;6.13;;
52380;SDS011;38310;52.796;6.942;2023-03-23T04:51:25;8.63;;;5.90;;
52380;SDS011;38310;52.796;6.942;2023-03-23T04:53:54;9.32;;;5.65;;
52380;SDS011;38310;52.796;6.942;2023-03-23T04:56:20;7.93;;;5.00;;
52380;SDS011;38310;52.796;6.942;2023-03-23T04:58:46;10.05;;;5.68;;
52380;SDS011;38310;52.796;6.942;2023-03-23T05:01:12;7.22;;;5.60;;
52380;SDS011;38310;52.796;6.942;2023-03-23T05:03:43;9.18;;;5.50;;
52380;SDS011;38310;52.796;6.942;2023-03-23T05:06:09;9.50;;;5.35;;
52380;SDS011;38310;52.796;6.942;2023-03-23T05:08:36;7.93;;;4.70;;
52380;SDS011;38310;52.796;6.942;2023-03-23T05:11:05;10.55;;;5.53;;
52380;SDS011;38310;52.796;6.942;2023-03-23T05:13:31;8.05;;;4.97;;
52380;SDS011;38310;52.796;6.942;2023-03-23T05:15:57;9.95;;;5.22;;
52380;SDS011;38310;52.796;6.942;2023-03-23T05:18:23;8.38;;;5.28;;
52380;SDS011;38310;52.796;6.942;2023-03-23T05:20:51;10.82;;;5.53;;
52380;SDS011;38310;52.796;6.942;2023-03-23T05:23:18;7.43;;;5.45;;
52380;SDS011;38310;52.796;6.942;2023-03-23T05:25:52;7.63;;;4.88;;
52380;SDS011;38310;52.796;6.942;2023-03-23T05:28:21;8.65;;;4.97;;
52380;SDS011;38310;52.796;6.942;2023-03-23T05:30:47;9.63;;;5.28;;
52380;SDS011;38310;52.796;6.942;2023-03-23T05:33:14;7.88;;;5.15;;
52380;SDS011;38310;52.796;6.942;2023-03-23T05:35:40;7.75;;;5.28;;
52380;SDS011;38310;52.796;6.942;2023-03-23T05:38:06;10.57;;;5.65;;
52380;SDS011;38310;52.796;6.942;2023-03-23T05:40:32;8.82;;;5.70;;
52380;SDS011;38310;52.796;6.942;2023-03-23T05:42:58;20.98;;;7.85;;
52380;SDS011;38310;52.796;6.942;2023-03-23T05:45:24;13.63;;;5.95;;
52380;SDS011;38310;52.796;6.942;2023-03-23T05:47:51;9.77;;;5.43;;
52380;SDS011;38310;52.796;6.942;2023-03-23T05:50:17;9.68;;;5.00;;
52380;SDS011;38310;52.796;6.942;2023-03-23T05:52:43;11.50;;;5.50;;
52380;SDS011;38310;52.796;6.942;2023-03-23T05:55:09;9.63;;;5.25;;
52380;SDS011;38310;52.796;6.942;2023-03-23T05:57:35;10.07;;;5.00;;
52380;SDS011;38310;52.796;6.942;2023-03-23T06:00:02;12.52;;;5.32;;
52380;SDS011;38310;52.796;6.942;2023-03-23T06:02:36;7.53;;;4.72;;
52380;SDS011;38310;52.796;6.942;2023-03-23T06:05:02;7.65;;;4.35;;
52380;SDS011;38310;52.796;6.942;2023-03-23T06:07:28;9.15;;;4.47;;
52380;SDS011;38310;52.796;6.942;2023-03-23T06:09:54;7.38;;;4.60;;
52380;SDS011;38310;52.796;6.942;2023-03-23T06:12:20;9.82;;;4.65;;
52380;SDS011;38310;52.796;6.942;2023-03-23T06:14:47;6.35;;;4.22;;
52380;SDS011;38310;52.796;6.942;2023-03-23T06:17:14;9.80;;;4.47;;
52380;SDS011;38310;52.796;6.942;2023-03-23T06:19:42;7.90;;;4.25;;
52380;SDS011;38310;52.796;6.942;2023-03-23T06:22:08;6.70;;;4.28;;
52380;SDS011;38310;52.796;6.942;2023-03-23T06:24:34;7.78;;;4.20;;
52380;SDS011;38310;52.796;6.942;2023-03-23T06:27:00;6.20;;;4.18;;
52380;SDS011;38310;52.796;6.942;2023-03-23T06:29:26;7.72;;;3.78;;
52380;SDS011;38310;52.796;6.942;2023-03-23T06:31:53;8.07;;;4.05;;
52380;SDS011;38310;52.796;6.942;2023-03-23T06:34:22;8.82;;;4.25;;
52380;SDS011;38310;52.796;6.942;2023-03-23T06:36:48;9.75;;;4.22;;
52380;SDS011;38310;52.796;6.942;2023-03-23T06:39:13;9.55;;;3.88;;
52380;SDS011;38310;52.796;6.942;2023-03-23T06:41:39;6.85;;;4.35;;
52380;SDS011;38310;52.796;6.942;2023-03-23T06:44:05;12.50;;;4.05;;
52380;SDS011;38310;52.796;6.942;2023-03-23T06:46:31;10.60;;;4.93;;
52380;SDS011;38310;52.796;6.942;2023-03-23T06:48:57;12.68;;;4.95;;
52380;SDS011;38310;52.796;6.942;2023-03-23T06:51:23;9.25;;;4.22;;
52380;SDS011;38310;52.796;6.942;2023-03-23T06:53:49;10.82;;;4.88;;
52380;SDS011;38310;52.796;6.942;2023-03-23T06:56:15;11.00;;;4.05;;
52380;SDS011;38310;52.796;6.942;2023-03-23T06:58:41;12.82;;;4.57;;
52380;SDS011;38310;52.796;6.942;2023-03-23T07:01:08;10.60;;;4.70;;
52380;SDS011;38310;52.796;6.942;2023-03-23T07:03:34;12.82;;;5.50;;
52380;SDS011;38310;52.796;6.942;2023-03-23T07:06:01;16.65;;;5.03;;
52380;SDS011;38310;52.796;6.942;2023-03-23T07:08:28;11.73;;;5.28;;
52380;SDS011;38310;52.796;6.942;2023-03-23T07:10:54;11.23;;;5.30;;
52380;SDS011;38310;52.796;6.942;2023-03-23T07:13:21;11.15;;;5.47;;
52380;SDS011;38310;52.796;6.942;2023-03-23T07:15:47;13.05;;;5.20;;
52380;SDS011;38310;52.796;6.942;2023-03-23T07:18:16;12.23;;;5.32;;
52380;SDS011;38310;52.796;6.942;2023-03-23T07:20:42;14.02;;;5.80;;
52380;SDS011;38310;52.796;6.942;2023-03-23T07:23:08;11.05;;;5.05;;
52380;SDS011;38310;52.796;6.942;2023-03-23T07:25:34;11.10;;;5.25;;
52380;SDS011;38310;52.796;6.942;2023-03-23T07:28:02;10.90;;;5.13;;
52380;SDS011;38310;52.796;6.942;2023-03-23T07:30:28;14.18;;;5.72;;
52380;SDS011;38310;52.796;6.942;2023-03-23T07:32:55;9.82;;;4.68;;
52380;SDS011;38310;52.796;6.942;2023-03-23T07:35:22;12.63;;;4.95;;
52380;SDS011;38310;52.796;6.942;2023-03-23T07:37:48;12.65;;;5.50;;
52380;SDS011;38310;52.796;6.942;2023-03-23T07:40:14;10.75;;;5.55;;
52380;SDS011;38310;52.796;6.942;2023-03-23T07:42:44;15.27;;;5.18;;
52380;SDS011;38310;52.796;6.942;2023-03-23T07:45:14;14.88;;;5.10;;
52380;SDS011;38310;52.796;6.942;2023-03-23T07:47:40;9.27;;;5.10;;
52380;SDS011;38310;52.796;6.942;2023-03-23T07:50:07;10.57;;;4.93;;
52380;SDS011;38310;52.796;6.942;2023-03-23T07:52:34;12.15;;;4.97;;
52380;SDS011;38310;52.796;6.942;2023-03-23T07:55:01;12.93;;;5.28;;
52380;SDS011;38310;52.796;6.942;2023-03-23T07:57:28;12.10;;;4.50;;
52380;SDS011;38310;52.796;6.942;2023-03-23T07:59:55;10.82;;;4.80;;
52380;SDS011;38310;52.796;6.942;2023-03-23T08:02:22;10.35;;;5.00;;
52380;SDS011;38310;52.796;6.942;2023-03-23T08:04:48;12.05;;;4.22;;
52380;SDS011;38310;52.796;6.942;2023-03-23T08:07:15;10.65;;;4.30;;
52380;SDS011;38310;52.796;6.942;2023-03-23T08:09:41;10.93;;;4.97;;
52380;SDS011;38310;52.796;6.942;2023-03-23T08:12:11;12.88;;;4.75;;
52380;SDS011;38310;52.796;6.942;2023-03-23T08:14:38;13.30;;;5.22;;
52380;SDS011;38310;52.796;6.942;2023-03-23T08:17:05;16.40;;;5.15;;
52380;SDS011;38310;52.796;6.942;2023-03-23T08:19:30;15.50;;;5.82;;
52380;SDS011;38310;52.796;6.942;2023-03-23T08:22:03;14.55;;;4.97;;
52380;SDS011;38310;52.796;6.942;2023-03-23T08:24:30;16.83;;;5.45;;
52380;SDS011;38310;52.796;6.942;2023-03-23T08:26:56;15.32;;;5.40;;
52380;SDS011;38310;52.796;6.942;2023-03-23T08:29:21;11.88;;;4.93;;
52380;SDS011;38310;52.796;6.942;2023-03-23T08:31:47;15.10;;;5.70;;
52380;SDS011;38310;52.796;6.942;2023-03-23T08:34:13;13.88;;;6.03;;
52380;SDS011;38310;52.796;6.942;2023-03-23T08:36:40;15.75;;;6.32;;
52380;SDS011;38310;52.796;6.942;2023-03-23T08:39:09;14.52;;;5.47;;
52380;SDS011;38310;52.796;6.942;2023-03-23T08:41:35;13.13;;;5.78;;
52380;SDS011;38310;52.796;6.942;2023-03-23T08:44:01;13.88;;;5.65;;
52380;SDS011;38310;52.796;6.942;2023-03-23T08:46:27;15.85;;;5.70;;
52380;SDS011;38310;52.796;6.942;2023-03-23T08:48:53;15.07;;;6.15;;
52380;SDS011;38310;52.796;6.942;2023-03-23T08:51:19;13.75;;;5.28;;
52380;SDS011;38310;52.796;6.942;2023-03-23T08:53:45;16.40;;;6.43;;
52380;SDS011;38310;52.796;6.942;2023-03-23T08:56:11;11.15;;;5.70;;
52380;SDS011;38310;52.796;6.942;2023-03-23T08:58:38;10.73;;;5.13;;
52380;SDS011;38310;52.796;6.942;2023-03-23T09:01:05;10.88;;;5.28;;
52380;SDS011;38310;52.796;6.942;2023-03-23T09:03:32;15.02;;;5.00;;
52380;SDS011;38310;52.796;6.942;2023-03-23T09:06:03;15.05;;;4.97;;
52380;SDS011;38310;52.796;6.942;2023-03-23T09:08:31;16.58;;;5.45;;
52380;SDS011;38310;52.796;6.942;2023-03-23T09:11:00;11.40;;;4.93;;
52380;SDS011;38310;52.796;6.942;2023-03-23T09:13:28;13.93;;;5.72;;
52380;SDS011;38310;52.796;6.942;2023-03-23T09:15:53;17.08;;;5.88;;
52380;SDS011;38310;52.796;6.942;2023-03-23T09:18:19;13.02;;;5.85;;
52380;SDS011;38310;52.796;6.942;2023-03-23T09:20:45;15.63;;;6.07;;
52380;SDS011;38310;52.796;6.942;2023-03-23T09:23:13;13.75;;;6.00;;
52380;SDS011;38310;52.796;6.942;2023-03-23T09:25:40;14.60;;;6.13;;
52380;SDS011;38310;52.796;6.942;2023-03-23T09:28:06;10.52;;;5.28;;
52380;SDS011;38310;52.796;6.942;2023-03-23T09:30:32;13.25;;;5.88;;
52380;SDS011;38310;52.796;6.942;2023-03-23T09:33:01;18.45;;;6.22;;
52380;SDS011;38310;52.796;6.942;2023-03-23T09:35:30;13.60;;;5.93;;
52380;SDS011;38310;52.796;6.942;2023-03-23T09:37:59;14.00;;;6.47;;
52380;SDS011;38310;52.796;6.942;2023-03-23T09:54:10;14.50;;;5.38;;
52380;SDS011;38310;52.796;6.942;2023-03-23T10:04:51;10.18;;;4.68;;
52380;SDS011;38310;52.796;6.942;2023-03-23T10:07:20;7.78;;;4.43;;
52380;SDS011;38310;52.796;6.942;2023-03-23T10:09:52;11.38;;;4.32;;
52380;SDS011;38310;52.796;6.942;2023-03-23T10:23:20;8.40;;;3.70;;
52380;SDS011;38310;52.796;6.942;2023-03-23T10:28:42;8.55;;;3.40;;
52380;SDS011;38310;52.796;6.942;2023-03-23T10:34:01;10.98;;;3.60;;
52380;SDS011;38310;52.796;6.942;2023-03-23T10:36:55;9.38;;;3.50;;
52380;SDS011;38310;52.796;6.942;2023-03-23T10:39:27;8.55;;;3.47;;
52380;SDS011;38310;52.796;6.942;2023-03-23T10:41:59;7.22;;;3.10;;
52380;SDS011;38310;52.796;6.942;2023-03-23T10:44:32;7.55;;;3.88;;
52380;SDS011;38310;52.796;6.942;2023-03-23T10:47:03;10.27;;;3.65;;
52380;SDS011;38310;52.796;6.942;2023-03-23T10:55:01;6.47;;;2.95;;
52380;SDS011;38310;52.796;6.942;2023-03-23T10:57:28;10.88;;;3.65;;
52380;SDS011;38310;52.796;6.942;2023-03-23T11:00:03;10.10;;;3.80;;
52380;SDS011;38310;52.796;6.942;2023-03-23T11:02:40;8.88;;;2.95;;
52380;SDS011;38310;52.796;6.942;2023-03-23T11:05:43;7.63;;;3.00;;
52380;SDS011;38310;52.796;6.942;2023-03-23T11:08:19;9.82;;;3.17;;
52380;SDS011;38310;52.796;6.942;2023-03-23T11:10:59;6.45;;;3.13;;
52380;SDS011;38310;52.796;6.942;2023-03-23T11:13:37;9.38;;;3.00;;
52380;SDS011;38310;52.796;6.942;2023-03-23T11:16:07;7.40;;;2.92;;
52380;SDS011;38310;52.796;6.942;2023-03-23T11:18:35;9.57;;;3.53;;
52380;SDS011;38310;52.796;6.942;2023-03-23T11:21:04;9.93;;;3.35;;
52380;SDS011;38310;52.796;6.942;2023-03-23T11:23:32;7.65;;;2.97;;
52380;SDS011;38310;52.796;6.942;2023-03-23T11:31:45;7.85;;;2.88;;
52380;SDS011;38310;52.796;6.942;2023-03-23T11:34:21;7.07;;;3.28;;
52380;SDS011;38310;52.796;6.942;2023-03-23T11:36:58;7.40;;;2.60;;
52380;SDS011;38310;52.796;6.942;2023-03-23T11:41:57;8.43;;;3.20;;
52380;SDS011;38310;52.796;6.942;2023-03-23T11:44:31;6.75;;;2.78;;
52380;SDS011;38310;52.796;6.942;2023-03-23T11:47:04;7.55;;;2.92;;
52380;SDS011;38310;52.796;6.942;2023-03-23T11:58:17;7.60;;;3.05;;
52380;SDS011;38310;52.796;6.942;2023-03-23T12:00:58;8.30;;;2.97;;
52380;SDS011;38310;52.796;6.942;2023-03-23T12:06:20;8.70;;;2.38;;
52380;SDS011;38310;52.796;6.942;2023-03-23T12:14:44;7.70;;;2.70;;
52380;SDS011;38310;52.796;6.942;2023-03-23T12:25:36;7.13;;;2.70;;
52380;SDS011;38310;52.796;6.942;2023-03-23T12:28:09;7.88;;;3.17;;
52380;SDS011;38310;52.796;6.942;2023-03-23T12:44:52;9.80;;;2.92;;
52380;SDS011;38310;52.796;6.942;2023-03-23T12:48:17;7.50;;;2.67;;
52380;SDS011;38310;52.796;6.942;2023-03-23T12:50:59;9.85;;;2.55;;
52380;SDS011;38310;52.796;6.942;2023-03-23T12:53:28;7.57;;;2.83;;
52380;SDS011;38310;52.796;6.942;2023-03-23T12:56:08;9.55;;;2.60;;
52380;SDS011;38310;52.796;6.942;2023-03-23T12:58:48;7.38;;;2.63;;
52380;SDS011;38310;52.796;6.942;2023-03-23T13:01:26;8.80;;;2.60;;
52380;SDS011;38310;52.796;6.942;2023-03-23T13:03:58;11.15;;;2.90;;
52380;SDS011;38310;52.796;6.942;2023-03-23T13:06:44;9.65;;;3.00;;
52380;SDS011;38310;52.796;6.942;2023-03-23T13:09:22;12.00;;;2.75;;
52380;SDS011;38310;52.796;6.942;2023-03-23T13:12:12;6.47;;;2.10;;
52380;SDS011;38310;52.796;6.942;2023-03-23T13:14:49;7.85;;;2.83;;
52380;SDS011;38310;52.796;6.942;2023-03-23T13:25:55;9.13;;;2.55;;
52380;SDS011;38310;52.796;6.942;2023-03-23T13:28:56;9.48;;;2.38;;
52380;SDS011;38310;52.796;6.942;2023-03-23T13:31:44;7.18;;;2.20;;
52380;SDS011;38310;52.796;6.942;2023-03-23T13:34:24;7.80;;;2.08;;
52380;SDS011;38310;52.796;6.942;2023-03-23T13:39:52;9.82;;;2.90;;
52380;SDS011;38310;52.796;6.942;2023-03-23T13:42:28;7.78;;;2.15;;
52380;SDS011;38310;52.796;6.942;2023-03-23T13:48:04;8.27;;;1.92;;
52380;SDS011;38310;52.796;6.942;2023-03-23T13:50:55;8.38;;;2.38;;
52380;SDS011;38310;52.796;6.942;2023-03-23T13:53:30;8.75;;;2.40;;
52380;SDS011;38310;52.796;6.942;2023-03-23T13:59:07;9.00;;;1.95;;
52380;SDS011;38310;52.796;6.942;2023-03-23T14:01:37;10.75;;;2.42;;
52380;SDS011;38310;52.796;6.942;2023-03-23T14:04:07;5.93;;;1.90;;
52380;SDS011;38310;52.796;6.942;2023-03-23T14:06:38;8.10;;;2.05;;
52380;SDS011;38310;52.796;6.942;2023-03-23T14:09:10;9.30;;;2.10;;
52380;SDS011;38310;52.796;6.942;2023-03-23T14:11:57;10.27;;;2.70;;
52380;SDS011;38310;52.796;6.942;2023-03-23T14:14:29;10.05;;;2.63;;
52380;SDS011;38310;52.796;6.942;2023-03-23T14:17:11;8.68;;;2.70;;
52380;SDS011;38310;52.796;6.942;2023-03-23T14:19:38;7.68;;;2.50;;
52380;SDS011;38310;52.796;6.942;2023-03-23T14:22:14;7.22;;;2.13;;
52380;SDS011;38310;52.796;6.942;2023-03-23T14:24:49;5.50;;;2.22;;
52380;SDS011;38310;52.796;6.942;2023-03-23T14:27:16;6.80;;;2.05;;
52380;SDS011;38310;52.796;6.942;2023-03-23T14:29:44;9.30;;;2.50;;
52380;SDS011;38310;52.796;6.942;2023-03-23T14:32:15;7.57;;;2.85;;
52380;SDS011;38310;52.796;6.942;2023-03-23T14:34:43;9.80;;;2.70;;
52380;SDS011;38310;52.796;6.942;2023-03-23T14:37:11;9.93;;;2.45;;
52380;SDS011;38310;52.796;6.942;2023-03-23T14:39:39;6.72;;;2.22;;
52380;SDS011;38310;52.796;6.942;2023-03-23T14:42:13;12.35;;;2.67;;
52380;SDS011;38310;52.796;6.942;2023-03-23T14:44:46;7.25;;;3.35;;
52380;SDS011;38310;52.796;6.942;2023-03-23T14:47:20;10.57;;;2.42;;
52380;SDS011;38310;52.796;6.942;2023-03-23T14:50:56;8.75;;;2.78;;
52380;SDS011;38310;52.796;6.942;2023-03-23T14:56:03;8.15;;;2.47;;
52380;SDS011;38310;52.796;6.942;2023-03-23T14:58:46;7.53;;;2.17;;
52380;SDS011;38310;52.796;6.942;2023-03-23T15:01:24;9.90;;;2.60;;
52380;SDS011;38310;52.796;6.942;2023-03-23T15:03:57;8.32;;;2.20;;
52380;SDS011;38310;52.796;6.942;2023-03-23T15:06:24;6.75;;;2.20;;
52380;SDS011;38310;52.796;6.942;2023-03-23T15:08:54;7.63;;;2.72;;
52380;SDS011;38310;52.796;6.942;2023-03-23T15:11:26;7.93;;;2.33;;
52380;SDS011;38310;52.796;6.942;2023-03-23T15:13:55;8.65;;;2.10;;
52380;SDS011;38310;52.796;6.942;2023-03-23T15:18:56;8.25;;;2.10;;
52380;SDS011;38310;52.796;6.942;2023-03-23T15:21:30;7.82;;;2.55;;
52380;SDS011;38310;52.796;6.942;2023-03-23T15:24:01;5.90;;;2.30;;
52380;SDS011;38310;52.796;6.942;2023-03-23T15:26:44;8.98;;;3.00;;
52380;SDS011;38310;52.796;6.942;2023-03-23T15:29:22;7.88;;;2.40;;
52380;SDS011;38310;52.796;6.942;2023-03-23T15:31:55;7.68;;;2.60;;
52380;SDS011;38310;52.796;6.942;2023-03-23T15:34:39;8.48;;;2.90;;
52380;SDS011;38310;52.796;6.942;2023-03-23T15:37:13;11.48;;;3.40;;
52380;SDS011;38310;52.796;6.942;2023-03-23T15:39:53;8.13;;;2.42;;
52380;SDS011;38310;52.796;6.942;2023-03-23T15:42:41;6.82;;;2.70;;
52380;SDS011;38310;52.796;6.942;2023-03-23T15:47:47;9.40;;;3.75;;
52380;SDS011;38310;52.796;6.942;2023-03-23T15:53:15;7.57;;;2.95;;
52380;SDS011;38310;52.796;6.942;2023-03-23T15:55:58;9.95;;;3.00;;
52380;SDS011;38310;52.796;6.942;2023-03-23T15:58:26;8.23;;;3.08;;
52380;SDS011;38310;52.796;6.942;2023-03-23T16:00:52;9.90;;;2.63;;
52380;SDS011;38310;52.796;6.942;2023-03-23T16:03:23;10.18;;;2.80;;
52380;SDS011;38310;52.796;6.942;2023-03-23T16:05:52;8.95;;;2.97;;
52380;SDS011;38310;52.796;6.942;2023-03-23T16:08:18;8.90;;;3.50;;
52380;SDS011;38310;52.796;6.942;2023-03-23T16:10:44;6.68;;;3.20;;
52380;SDS011;38310;52.796;6.942;2023-03-23T16:13:10;12.88;;;3.60;;
52380;SDS011;38310;52.796;6.942;2023-03-23T16:15:36;8.80;;;3.50;;
52380;SDS011;38310;52.796;6.942;2023-03-23T16:18:02;7.68;;;3.05;;
52380;SDS011;38310;52.796;6.942;2023-03-23T16:20:28;8.07;;;3.05;;
52380;SDS011;38310;52.796;6.942;2023-03-23T16:22:54;7.35;;;2.95;;
52380;SDS011;38310;52.796;6.942;2023-03-23T16:25:20;8.85;;;3.03;;
52380;SDS011;38310;52.796;6.942;2023-03-23T16:27:46;9.27;;;3.28;;
52380;SDS011;38310;52.796;6.942;2023-03-23T16:32:46;10.50;;;3.10;;
52380;SDS011;38310;52.796;6.942;2023-03-23T16:35:13;14.55;;;3.53;;
52380;SDS011;38310;52.796;6.942;2023-03-23T16:37:43;9.55;;;3.60;;
52380;SDS011;38310;52.796;6.942;2023-03-23T16:40:14;9.20;;;3.33;;
52380;SDS011;38310;52.796;6.942;2023-03-23T16:42:40;6.25;;;3.13;;
52380;SDS011;38310;52.796;6.942;2023-03-23T16:45:07;8.20;;;3.42;;
52380;SDS011;38310;52.796;6.942;2023-03-23T16:47:33;9.55;;;4.05;;
52380;SDS011;38310;52.796;6.942;2023-03-23T16:50:00;12.40;;;7.20;;
52380;SDS011;38310;52.796;6.942;2023-03-23T16:52:26;9.80;;;5.88;;
52380;SDS011;38310;52.796;6.942;2023-03-23T16:54:52;7.85;;;3.88;;
52380;SDS011;38310;52.796;6.942;2023-03-23T16:57:17;8.43;;;3.35;;
52380;SDS011;38310;52.796;6.942;2023-03-23T16:59:43;8.43;;;3.58;;
52380;SDS011;38310;52.796;6.942;2023-03-23T17:02:10;9.88;;;3.30;;
52380;SDS011;38310;52.796;6.942;2023-03-23T17:04:37;12.48;;;3.10;;
52380;SDS011;38310;52.796;6.942;2023-03-23T17:07:07;7.57;;;3.05;;
52380;SDS011;38310;52.796;6.942;2023-03-23T17:09:33;9.30;;;2.55;;
52380;SDS011;38310;52.796;6.942;2023-03-23T17:11:59;12.77;;;3.60;;
52380;SDS011;38310;52.796;6.942;2023-03-23T17:14:25;7.55;;;2.83;;
52380;SDS011;38310;52.796;6.942;2023-03-23T17:16:51;7.85;;;2.97;;
52380;SDS011;38310;52.796;6.942;2023-03-23T17:19:17;6.57;;;2.60;;
52380;SDS011;38310;52.796;6.942;2023-03-23T17:21:43;6.68;;;2.97;;